createdAt,value
2018-12-03T00:01:12.776Z,12.20
2018-12-03T00:03:40.999Z,12.20
2018-12-03T00:06:09.223Z,12.20
2018-12-03T00:08:37.441Z,12.20
2018-12-03T00:11:05.996Z,12.30
2018-12-03T00:13:34.215Z,12.30
2018-12-03T00:16:02.436Z,12.30
2018-12-03T00:18:30.661Z,12.30
2018-12-03T00:20:58.882Z,12.30
2018-12-03T00:23:27.100Z,12.30
2018-12-03T00:25:55.341Z,12.40
2018-12-03T00:28:23.564Z,12.30
2018-12-03T00:30:51.768Z,12.40
2018-12-03T00:33:19.981Z,12.40
2018-12-03T00:35:48.163Z,12.50
2018-12-03T00:38:16.381Z,12.40
2018-12-03T00:40:44.576Z,12.40
2018-12-03T00:43:12.772Z,12.50
2018-12-03T00:45:40.972Z,12.40
2018-12-03T00:48:09.184Z,12.40
2018-12-03T00:50:37.372Z,12.30
2018-12-03T00:53:05.667Z,12.40
2018-12-03T00:55:33.856Z,12.40
2018-12-03T00:58:02.045Z,12.40
2018-12-03T01:00:30.253Z,12.50
2018-12-03T01:02:58.441Z,12.50
2018-12-03T01:05:26.635Z,12.60
2018-12-03T01:07:54.832Z,12.50
2018-12-03T01:10:23.036Z,12.40
2018-12-03T01:12:51.491Z,12.50
2018-12-03T01:15:19.701Z,12.50
2018-12-03T01:17:47.929Z,12.60
2018-12-03T01:20:16.125Z,12.80
2018-12-03T01:22:44.322Z,12.70
2018-12-03T01:25:12.519Z,12.60
2018-12-03T01:27:40.787Z,12.60
2018-12-03T01:30:10.899Z,12.70
2018-12-03T01:32:39.192Z,12.70
2018-12-03T01:35:08.873Z,12.70
2018-12-03T01:37:37.138Z,12.70
2018-12-03T01:40:08.098Z,12.70
2018-12-03T01:42:36.316Z,12.70
2018-12-03T01:45:06.321Z,12.70
2018-12-03T01:47:34.537Z,12.80
2018-12-03T01:50:02.772Z,12.70
2018-12-03T01:52:30.993Z,12.70
2018-12-03T01:54:59.225Z,12.70
2018-12-03T01:57:27.428Z,12.60
2018-12-03T01:59:55.662Z,12.70
2018-12-03T02:02:23.873Z,12.70
2018-12-03T02:04:52.096Z,12.70
2018-12-03T02:07:20.314Z,12.60
2018-12-03T02:09:48.540Z,12.70
2018-12-03T02:12:16.763Z,12.70
2018-12-03T02:14:44.975Z,12.70
2018-12-03T02:17:13.191Z,12.50
2018-12-03T02:19:41.412Z,12.50
2018-12-03T02:22:09.619Z,12.60
2018-12-03T02:24:37.840Z,12.60
2018-12-03T02:27:06.379Z,12.60
2018-12-03T02:29:34.612Z,12.60
2018-12-03T02:32:02.871Z,12.70
2018-12-03T02:34:31.070Z,12.70
2018-12-03T02:36:59.254Z,12.70
2018-12-03T02:39:27.470Z,12.70
2018-12-03T02:41:55.654Z,12.60
2018-12-03T02:44:23.856Z,12.70
2018-12-03T02:46:52.045Z,12.70
2018-12-03T02:49:20.253Z,12.70
2018-12-03T02:51:48.436Z,12.80
2018-12-03T02:54:16.643Z,12.70
2018-12-03T02:56:44.837Z,12.70
2018-12-03T02:59:13.036Z,12.70
2018-12-03T03:01:41.254Z,12.70
2018-12-03T03:04:09.461Z,12.80
2018-12-03T03:06:37.707Z,12.80
2018-12-03T03:09:09.448Z,12.80
2018-12-03T03:11:37.631Z,12.90
2018-12-03T03:14:05.878Z,12.80
2018-12-03T03:16:34.069Z,12.80
2018-12-03T03:19:02.270Z,12.80
2018-12-03T03:21:30.461Z,12.80
2018-12-03T03:23:58.652Z,12.80
2018-12-03T03:26:26.829Z,12.80
2018-12-03T03:28:55.059Z,12.80
2018-12-03T03:31:23.306Z,12.80
2018-12-03T03:33:51.516Z,12.80
2018-12-03T03:36:19.738Z,12.70
2018-12-03T03:38:47.939Z,12.80
2018-12-03T03:41:16.157Z,12.80
2018-12-03T03:43:44.365Z,12.80
2018-12-03T03:46:12.576Z,12.80
2018-12-03T03:48:40.787Z,12.80
2018-12-03T03:51:09.023Z,12.80
2018-12-03T03:53:37.224Z,12.80
2018-12-03T03:56:05.545Z,12.80
2018-12-03T03:58:33.762Z,12.80
2018-12-03T04:01:01.989Z,12.80
2018-12-03T04:03:30.209Z,12.70
2018-12-03T04:05:58.423Z,12.80
2018-12-03T04:08:26.643Z,12.90
2018-12-03T04:10:54.868Z,12.90
2018-12-03T04:13:23.085Z,12.90
2018-12-03T04:15:51.309Z,12.90
2018-12-03T04:18:19.524Z,12.90
2018-12-03T04:20:47.753Z,12.90
2018-12-03T04:23:15.964Z,13.00
2018-12-03T04:25:44.188Z,13.00
2018-12-03T04:28:12.406Z,13.00
2018-12-03T04:30:40.611Z,13.00
2018-12-03T04:33:11.872Z,13.00
2018-12-03T04:35:40.092Z,12.90
2018-12-03T04:38:08.292Z,12.90
2018-12-03T04:40:36.535Z,13.00
2018-12-03T04:43:04.947Z,13.00
2018-12-03T04:45:33.186Z,13.00
2018-12-03T04:48:01.389Z,13.00
2018-12-03T04:50:29.605Z,13.00
2018-12-03T04:52:57.795Z,13.00
2018-12-03T04:55:26.008Z,13.00
2018-12-03T04:57:54.213Z,13.00
2018-12-03T05:00:22.476Z,13.00
2018-12-03T05:02:51.722Z,13.00
2018-12-03T05:05:20.005Z,13.00
2018-12-03T05:07:48.193Z,12.90
2018-12-03T05:10:18.213Z,13.00
2018-12-03T05:12:48.464Z,13.00
2018-12-03T05:15:16.660Z,13.00
2018-12-03T05:17:44.940Z,13.00
2018-12-03T05:20:19.059Z,13.00
2018-12-03T05:22:47.262Z,13.00
2018-12-03T05:25:19.248Z,13.00
2018-12-03T05:27:43.692Z,13.00
2018-12-03T05:30:13.211Z,12.90
2018-12-03T05:32:42.367Z,13.10
2018-12-03T05:35:13.830Z,13.10
2018-12-03T05:37:42.021Z,13.10
2018-12-03T05:40:16.495Z,13.10
2018-12-03T05:42:44.997Z,13.10
2018-12-03T05:45:13.199Z,13.00
2018-12-03T05:47:41.477Z,13.10
2018-12-03T05:50:13.721Z,13.10
2018-12-03T05:52:42.193Z,13.10
2018-12-03T05:55:12.121Z,13.20
2018-12-03T05:57:40.320Z,13.20
2018-12-03T06:00:11.133Z,13.20
2018-12-03T06:02:39.333Z,13.20
2018-12-03T06:05:08.712Z,13.20
2018-12-03T06:07:37.110Z,13.10
2018-12-03T06:10:08.128Z,13.10
2018-12-03T06:12:36.313Z,13.10
2018-12-03T06:15:05.118Z,13.20
2018-12-03T06:17:33.297Z,13.20
2018-12-03T06:20:01.505Z,13.20
2018-12-03T06:22:29.700Z,13.20
2018-12-03T06:24:57.910Z,13.30
2018-12-03T06:27:26.100Z,13.30
2018-12-03T06:29:54.291Z,13.20
2018-12-03T06:32:22.524Z,13.20
2018-12-03T06:34:50.740Z,13.20
2018-12-03T06:37:18.953Z,13.20
2018-12-03T06:39:47.160Z,13.20
2018-12-03T06:42:15.559Z,13.20
2018-12-03T06:44:43.759Z,13.20
2018-12-03T06:47:12.437Z,13.30
2018-12-03T06:49:40.652Z,13.30
2018-12-03T06:52:08.864Z,13.30
2018-12-03T06:54:37.080Z,13.20
2018-12-03T06:57:05.587Z,13.10
2018-12-03T06:59:33.796Z,13.10
2018-12-03T07:02:02.016Z,13.00
2018-12-03T07:04:30.239Z,13.00
2018-12-03T07:06:58.452Z,13.00
2018-12-03T07:09:26.657Z,13.00
2018-12-03T07:11:54.870Z,13.10
2018-12-03T07:14:23.085Z,13.20
2018-12-03T07:16:51.351Z,13.20
2018-12-03T07:19:19.544Z,13.30
2018-12-03T07:21:47.765Z,13.30
2018-12-03T07:24:15.980Z,13.30
2018-12-03T07:26:44.195Z,13.30
2018-12-03T07:29:12.429Z,13.30
2018-12-03T07:31:40.665Z,13.30
2018-12-03T07:34:08.934Z,13.30
2018-12-03T07:36:37.182Z,13.30
2018-12-03T07:39:07.415Z,13.30
2018-12-03T07:41:35.687Z,13.30
2018-12-03T07:44:03.994Z,13.50
2018-12-03T07:46:32.261Z,13.50
2018-12-03T07:49:00.493Z,13.50
2018-12-03T07:51:28.757Z,13.60
2018-12-03T07:53:56.971Z,13.50
2018-12-03T07:56:25.188Z,13.50
2018-12-03T07:58:53.394Z,13.50
2018-12-03T08:01:21.614Z,13.50
2018-12-03T08:03:49.821Z,13.50
2018-12-03T08:06:18.051Z,13.40
2018-12-03T08:08:46.270Z,13.50
2018-12-03T08:11:14.513Z,13.50
2018-12-03T08:13:42.754Z,13.50
2018-12-03T08:16:10.985Z,13.50
2018-12-03T08:18:39.227Z,13.60
2018-12-03T08:21:08.646Z,13.50
2018-12-03T08:23:42.434Z,13.50
2018-12-03T08:26:11.224Z,13.60
2018-12-03T08:28:39.511Z,13.60
2018-12-03T08:31:07.726Z,13.70
2018-12-03T08:33:35.943Z,13.70
2018-12-03T08:36:04.188Z,13.70
2018-12-03T08:38:32.393Z,13.70
2018-12-03T08:41:05.093Z,13.70
2018-12-03T08:43:33.399Z,13.80
2018-12-03T08:46:02.870Z,13.70
2018-12-03T08:48:34.620Z,13.70
2018-12-03T08:51:02.905Z,13.70
2018-12-03T08:53:31.151Z,13.70
2018-12-03T08:55:59.380Z,13.80
2018-12-03T08:58:27.613Z,13.80
2018-12-03T09:00:55.821Z,13.80
2018-12-03T09:03:26.745Z,13.70
2018-12-03T09:05:56.237Z,13.80
2018-12-03T09:08:23.197Z,13.80
2018-12-03T09:10:51.732Z,13.90
2018-12-03T09:13:21.385Z,13.90
2018-12-03T09:15:55.613Z,13.80
2018-12-03T09:18:24.108Z,13.80
2018-12-03T09:20:52.318Z,13.80
2018-12-03T09:23:20.532Z,13.90
2018-12-03T09:25:48.744Z,14.00
2018-12-03T09:28:16.967Z,14.00
2018-12-03T09:30:45.189Z,14.00
2018-12-03T09:33:13.396Z,14.00
2018-12-03T09:35:41.613Z,14.00
2018-12-03T09:38:09.828Z,14.00
2018-12-03T09:40:38.041Z,14.10
2018-12-03T09:43:06.384Z,14.00
2018-12-03T09:45:34.601Z,14.00
2018-12-03T09:48:02.812Z,14.10
2018-12-03T09:50:31.009Z,14.10
2018-12-03T09:52:59.260Z,14.10
2018-12-03T09:55:28.848Z,14.20
2018-12-03T09:58:12.304Z,14.20
2018-12-03T10:00:40.688Z,14.10
2018-12-03T10:03:11.624Z,14.10
2018-12-03T10:05:43.881Z,14.10
2018-12-03T10:08:12.125Z,14.10
2018-12-03T10:10:40.672Z,14.10
2018-12-03T10:13:09.420Z,14.00
2018-12-03T10:15:37.672Z,14.10
2018-12-03T10:18:05.996Z,14.20
2018-12-03T10:20:34.238Z,14.10
2018-12-03T10:23:02.483Z,14.10
2018-12-03T10:25:30.752Z,14.10
2018-12-03T10:28:02.275Z,14.20
2018-12-03T10:30:30.636Z,14.20
2018-12-03T10:32:58.873Z,14.20
2018-12-03T10:35:34.768Z,14.20
2018-12-03T10:38:24.373Z,14.30
2018-12-03T10:40:56.013Z,14.40
2018-12-03T10:43:24.402Z,14.40
2018-12-03T10:45:52.687Z,14.30
2018-12-03T10:48:20.967Z,14.20
2018-12-03T10:50:49.308Z,14.20
2018-12-03T10:53:23.648Z,14.30
2018-12-03T10:55:52.004Z,14.30
2018-12-03T10:58:20.290Z,14.40
2018-12-03T11:00:54.008Z,14.40
2018-12-03T11:04:25.333Z,14.40
2018-12-03T11:06:53.576Z,14.40
2018-12-03T11:09:23.340Z,14.20
2018-12-03T11:11:51.583Z,14.20
2018-12-03T11:14:19.841Z,14.20
2018-12-03T11:16:48.598Z,14.20
2018-12-03T11:19:16.885Z,14.10
2018-12-03T11:21:45.157Z,14.00
2018-12-03T11:24:16.289Z,14.10
2018-12-03T11:26:46.409Z,14.20
2018-12-03T11:29:15.410Z,14.30
2018-12-03T11:31:43.663Z,14.20
2018-12-03T11:34:11.924Z,14.20
2018-12-03T11:36:43.492Z,14.20
2018-12-03T11:39:16.089Z,14.30
2018-12-03T11:41:44.333Z,14.30
2018-12-03T11:44:12.634Z,14.20
2018-12-03T11:46:40.898Z,14.20
2018-12-03T11:49:09.176Z,14.20
2018-12-03T11:51:37.412Z,14.20
2018-12-03T11:54:05.776Z,14.30
2018-12-03T11:56:34.029Z,14.40
2018-12-03T11:59:03.182Z,14.40
2018-12-03T12:01:30.552Z,14.40
2018-12-03T12:03:58.791Z,14.40
2018-12-03T12:06:27.043Z,14.40
2018-12-03T12:08:55.332Z,14.50
2018-12-03T12:11:23.583Z,14.40
2018-12-03T12:13:51.848Z,14.30
2018-12-03T12:16:20.092Z,14.40
2018-12-03T12:18:48.361Z,14.40
2018-12-03T12:21:16.621Z,14.50
2018-12-03T12:23:44.945Z,14.50
2018-12-03T12:26:13.190Z,14.50
2018-12-03T12:28:41.478Z,14.40
2018-12-03T12:31:10.149Z,14.50
2018-12-03T12:33:39.308Z,14.60
2018-12-03T12:36:10.129Z,14.60
2018-12-03T12:38:38.409Z,14.60
2018-12-03T12:41:06.660Z,14.40
2018-12-03T12:43:34.888Z,14.50
2018-12-03T12:46:08.356Z,14.50
2018-12-03T12:48:36.588Z,14.50
2018-12-03T12:51:04.865Z,14.50
2018-12-03T12:53:33.103Z,14.50
2018-12-03T12:56:01.358Z,14.50
2018-12-03T12:58:29.593Z,14.50
2018-12-03T13:00:57.901Z,14.50
2018-12-03T13:03:26.133Z,14.50
2018-12-03T13:05:54.381Z,14.50
2018-12-03T13:08:22.621Z,14.50
2018-12-03T13:10:52.017Z,14.40
2018-12-03T13:13:20.823Z,14.40
2018-12-03T13:15:50.464Z,14.50
2018-12-03T13:18:19.231Z,14.40
2018-12-03T13:20:47.685Z,14.40
2018-12-03T13:23:21.635Z,14.40
2018-12-03T13:25:50.132Z,14.50
2018-12-03T13:28:24.906Z,14.40
2018-12-03T13:30:53.365Z,14.40
2018-12-03T13:33:21.645Z,14.60
2018-12-03T13:35:49.941Z,14.50
2018-12-03T13:38:18.293Z,14.60
2018-12-03T13:40:46.536Z,14.60
2018-12-03T13:43:14.820Z,14.60
2018-12-03T13:45:43.216Z,14.60
2018-12-03T13:48:11.708Z,14.60
2018-12-03T13:50:39.967Z,14.60
2018-12-03T13:53:09.298Z,14.60
2018-12-03T13:55:37.522Z,14.60
2018-12-03T13:58:06.239Z,14.60
2018-12-03T14:00:38.187Z,14.60
2018-12-03T14:03:16.339Z,14.60
2018-12-03T14:05:55.982Z,14.50
2018-12-03T14:08:36.162Z,14.50
2018-12-03T14:11:12.633Z,14.50
2018-12-03T14:13:57.593Z,14.50
2018-12-03T14:16:46.616Z,14.60
2018-12-03T14:19:19.285Z,14.60
2018-12-03T14:21:51.791Z,14.50
2018-12-03T14:24:20.911Z,14.50
2018-12-03T14:26:49.107Z,14.30
2018-12-03T14:29:17.299Z,14.20
2018-12-03T14:31:45.548Z,14.10
2018-12-03T14:34:19.527Z,14.20
2018-12-03T14:36:47.760Z,14.20
2018-12-03T14:39:15.966Z,14.20
2018-12-03T14:41:44.187Z,14.30
2018-12-03T14:44:12.397Z,14.30
2018-12-03T14:46:40.634Z,14.30
2018-12-03T14:49:08.844Z,14.30
2018-12-03T14:51:37.148Z,14.40
2018-12-03T14:54:05.372Z,14.50
2018-12-03T14:56:33.684Z,14.50
2018-12-03T14:59:01.947Z,14.50
2018-12-03T15:01:30.217Z,14.50
2018-12-03T15:04:10.430Z,14.40
2018-12-03T15:06:38.685Z,14.40
2018-12-03T15:09:07.743Z,14.50
2018-12-03T15:11:36.041Z,14.50
2018-12-03T15:14:04.328Z,14.50
2018-12-03T15:16:32.852Z,14.50
2018-12-03T15:19:01.060Z,14.50
2018-12-03T15:21:29.324Z,14.50
2018-12-03T15:23:57.538Z,14.40
2018-12-03T15:26:25.759Z,14.40
2018-12-03T15:28:54.016Z,14.50
2018-12-03T15:31:22.233Z,14.60
2018-12-03T15:33:50.467Z,14.70
2018-12-03T15:36:18.677Z,14.60
2018-12-03T15:38:46.897Z,14.50
2018-12-03T15:41:15.144Z,14.50
2018-12-03T15:43:43.363Z,14.60
2018-12-03T15:46:15.467Z,14.60
2018-12-03T15:48:44.629Z,14.60
2018-12-03T15:51:13.124Z,14.60
2018-12-03T15:53:41.489Z,14.80
2018-12-03T15:56:11.280Z,14.80
2018-12-03T15:58:40.125Z,14.70
2018-12-03T16:01:14.256Z,14.60
2018-12-03T16:03:37.045Z,14.60
2018-12-03T16:06:05.280Z,14.60
2018-12-03T16:08:33.503Z,14.60
2018-12-03T16:11:01.717Z,14.60
2018-12-03T16:13:29.957Z,14.60
2018-12-03T16:15:58.167Z,14.60
2018-12-03T16:18:26.402Z,14.70
2018-12-03T16:20:54.639Z,14.80
2018-12-03T16:23:22.881Z,14.80
2018-12-03T16:25:51.166Z,14.80
2018-12-03T16:28:19.392Z,14.80
2018-12-03T16:30:47.629Z,14.60
2018-12-03T16:33:15.885Z,14.60
2018-12-03T16:35:44.216Z,14.70
2018-12-03T16:38:13.384Z,14.80
2018-12-03T16:40:41.610Z,14.80
2018-12-03T16:43:48.319Z,15.00
2018-12-03T16:46:16.545Z,14.90
2018-12-03T16:48:44.900Z,14.90
2018-12-03T16:51:13.232Z,14.90
2018-12-03T16:53:41.511Z,15.00
2018-12-03T16:56:09.754Z,15.00
2018-12-03T16:58:37.981Z,15.00
2018-12-03T17:01:06.208Z,14.90
2018-12-03T17:03:34.451Z,14.90
2018-12-03T17:06:05.695Z,14.90
2018-12-03T17:08:34.048Z,14.70
2018-12-03T17:11:02.663Z,14.60
2018-12-03T17:13:31.043Z,14.50
2018-12-03T17:15:59.276Z,14.50
2018-12-03T17:18:27.503Z,14.50
2018-12-03T17:21:16.997Z,14.40
2018-12-03T17:24:21.635Z,14.40
2018-12-03T17:26:49.980Z,14.30
2018-12-03T17:29:18.206Z,14.20
2018-12-03T17:31:46.473Z,14.10
2018-12-03T17:34:14.671Z,14.10
2018-12-03T17:36:42.872Z,14.10
2018-12-03T17:39:11.121Z,14.00
2018-12-03T17:41:39.513Z,14.00
2018-12-03T17:44:08.056Z,13.90
2018-12-03T17:46:36.426Z,13.80
2018-12-03T17:49:04.629Z,13.80
2018-12-03T17:51:33.045Z,13.60
2018-12-03T17:54:01.268Z,13.50
2018-12-03T17:56:29.547Z,13.50
2018-12-03T17:58:57.877Z,13.50
2018-12-03T18:01:26.119Z,13.40
2018-12-03T18:03:54.402Z,13.30
2018-12-03T18:06:22.700Z,13.20
2018-12-03T18:08:50.906Z,13.10
2018-12-03T18:11:19.153Z,13.00
2018-12-03T18:13:47.405Z,13.00
2018-12-03T18:16:15.740Z,13.10
2018-12-03T18:18:44.009Z,13.00
2018-12-03T18:21:12.223Z,12.90
2018-12-03T18:23:40.493Z,12.90
2018-12-03T18:26:08.711Z,13.00
2018-12-03T18:28:37.036Z,13.00
2018-12-03T18:31:05.352Z,13.00
2018-12-03T18:33:33.565Z,12.90
2018-12-03T18:36:01.809Z,12.80
2018-12-03T18:38:30.020Z,12.80
2018-12-03T18:41:03.280Z,12.80
2018-12-03T18:43:28.607Z,12.70
2018-12-03T18:45:56.855Z,12.80
2018-12-03T18:48:25.066Z,12.70
2018-12-03T18:50:54.631Z,12.60
2018-12-03T18:53:24.910Z,12.70
2018-12-03T18:55:53.307Z,12.60
2018-12-03T18:58:43.592Z,12.60
2018-12-03T19:01:11.874Z,12.50
2018-12-03T19:03:40.160Z,12.50
2018-12-03T19:06:08.948Z,12.40
2018-12-03T19:08:37.256Z,12.40
2018-12-03T19:11:05.575Z,12.40
2018-12-03T19:13:33.865Z,12.40
2018-12-03T19:16:02.221Z,12.40
2018-12-03T19:18:30.427Z,12.30
2018-12-03T19:20:58.665Z,12.30
2018-12-03T19:23:26.893Z,12.20
2018-12-03T19:25:55.195Z,12.30
2018-12-03T19:28:23.416Z,12.30
2018-12-03T19:30:51.649Z,12.20
2018-12-03T19:33:19.865Z,12.10
2018-12-03T19:35:48.181Z,12.10
2018-12-03T19:38:16.390Z,12.10
2018-12-03T19:40:44.680Z,12.00
2018-12-03T19:43:12.893Z,11.90
2018-12-03T19:45:41.113Z,11.90
2018-12-03T19:48:09.370Z,11.80
2018-12-03T19:50:37.673Z,11.70
2018-12-03T19:53:05.983Z,11.70
2018-12-03T19:55:35.297Z,11.60
2018-12-03T19:58:12.928Z,11.50
2018-12-03T20:00:41.563Z,11.50
2018-12-03T20:03:09.821Z,11.50
2018-12-03T20:05:38.147Z,11.50
2018-12-03T20:08:06.470Z,11.50
2018-12-03T20:10:34.921Z,11.50
2018-12-03T20:13:03.371Z,11.40
2018-12-03T20:15:31.668Z,11.50
2018-12-03T20:18:00.037Z,11.50
2018-12-03T20:20:36.768Z,11.50
2018-12-03T20:23:16.439Z,11.50
2018-12-03T20:25:50.033Z,11.50
2018-12-03T20:28:23.848Z,11.50
2018-12-03T20:31:07.592Z,11.50
2018-12-03T20:33:53.396Z,11.60
2018-12-03T20:36:33.441Z,11.50
2018-12-03T20:39:13.653Z,11.60
2018-12-03T20:41:45.474Z,11.50
2018-12-03T20:44:34.745Z,11.50
2018-12-03T20:47:24.000Z,11.40
2018-12-03T20:50:01.613Z,11.40
2018-12-03T20:52:31.002Z,11.40
2018-12-03T20:55:02.865Z,11.40
2018-12-03T20:57:31.171Z,11.40
2018-12-03T20:59:59.388Z,11.40
2018-12-03T21:02:27.859Z,11.50
2018-12-03T21:04:56.097Z,11.40
2018-12-03T21:07:24.364Z,11.40
2018-12-03T21:09:52.583Z,11.50
2018-12-03T21:12:20.816Z,11.40
2018-12-03T21:14:49.092Z,11.50
2018-12-03T21:17:18.044Z,11.50
2018-12-03T21:19:50.546Z,11.50
2018-12-03T21:22:18.786Z,11.50
2018-12-03T21:24:47.281Z,11.50
2018-12-03T21:27:15.534Z,11.50
2018-12-03T21:29:43.778Z,11.50
2018-12-03T21:32:12.049Z,11.50
2018-12-03T21:34:40.276Z,11.50
2018-12-03T21:37:08.531Z,11.40
2018-12-03T21:39:36.831Z,11.50
2018-12-03T21:42:05.191Z,11.40
2018-12-03T21:44:33.425Z,11.40
2018-12-03T21:47:01.638Z,11.40
2018-12-03T21:49:29.863Z,11.40
2018-12-03T21:51:58.193Z,11.40
2018-12-03T21:54:26.611Z,11.50
2018-12-03T21:56:54.953Z,11.40
2018-12-03T21:59:23.239Z,11.40
2018-12-03T22:01:51.483Z,11.40
2018-12-03T22:04:19.696Z,11.40
2018-12-03T22:06:59.157Z,11.40
2018-12-03T22:09:28.859Z,11.40
2018-12-03T22:11:58.109Z,11.40
2018-12-03T22:14:26.928Z,11.40
2018-12-03T22:16:55.727Z,11.40
2018-12-03T22:19:24.697Z,11.40
2018-12-03T22:21:53.763Z,11.40
2018-12-03T22:24:22.077Z,11.40
2018-12-03T22:26:50.301Z,11.40
2018-12-03T22:29:18.520Z,11.40
2018-12-03T22:31:46.731Z,11.30
2018-12-03T22:34:14.982Z,11.30
2018-12-03T22:36:43.217Z,11.40
2018-12-03T22:39:11.425Z,11.40
2018-12-03T22:41:39.641Z,11.40
2018-12-03T22:44:07.840Z,11.40
2018-12-03T22:46:36.131Z,11.40
2018-12-03T22:49:04.411Z,11.40
2018-12-03T22:51:32.722Z,11.50
2018-12-03T22:54:00.971Z,11.50
2018-12-03T22:56:29.160Z,11.60
2018-12-03T22:58:57.360Z,11.40
2018-12-03T23:01:25.732Z,11.40
2018-12-03T23:03:54.013Z,11.40
2018-12-03T23:06:22.301Z,11.40
2018-12-03T23:08:50.576Z,11.50
2018-12-03T23:11:18.867Z,11.50
2018-12-03T23:13:47.043Z,11.50
2018-12-03T23:16:15.239Z,11.60
2018-12-03T23:18:44.011Z,11.60
2018-12-03T23:21:12.252Z,11.60
2018-12-03T23:23:40.540Z,11.50
2018-12-03T23:26:08.843Z,11.40
2018-12-03T23:28:37.055Z,11.40
2018-12-03T23:31:05.377Z,11.40
2018-12-03T23:33:33.612Z,11.30
2018-12-03T23:36:01.953Z,11.20
2018-12-03T23:38:30.262Z,11.20
2018-12-03T23:40:58.719Z,11.20
2018-12-03T23:43:26.940Z,11.20
2018-12-03T23:45:55.239Z,11.10
2018-12-03T23:48:23.542Z,11.10
2018-12-03T23:50:51.759Z,11.10
2018-12-03T23:53:20.021Z,11.30
2018-12-03T23:55:48.373Z,11.20
2018-12-03T23:58:16.724Z,11.10
